createdAt,value
2023-12-24T00:00:33.630Z,9.26
2023-12-24T00:03:01.470Z,9.29
2023-12-24T00:05:28.239Z,9.28
2023-12-24T00:07:54.774Z,9.28
2023-12-24T00:10:21.234Z,9.35
2023-12-24T00:12:47.682Z,9.39
2023-12-24T00:15:15.860Z,9.39
2023-12-24T00:17:42.347Z,9.38
2023-12-24T00:20:09.481Z,9.40
2023-12-24T00:22:36.817Z,9.34
2023-12-24T00:25:03.625Z,9.40
2023-12-24T00:27:30.044Z,9.45
2023-12-24T00:29:56.452Z,9.46
2023-12-24T00:32:22.942Z,9.52
2023-12-24T00:34:49.379Z,9.53
2023-12-24T00:37:15.786Z,9.53
2023-12-24T00:39:42.186Z,9.58
2023-12-24T00:42:08.618Z,9.58
2023-12-24T00:44:35.111Z,9.60
2023-12-24T00:47:01.584Z,9.63
2023-12-24T00:49:29.982Z,9.64
2023-12-24T00:51:57.882Z,9.63
2023-12-24T00:54:24.299Z,9.66
2023-12-24T00:56:50.914Z,9.64
2023-12-24T00:59:17.388Z,9.61
2023-12-24T01:01:43.846Z,9.71
2023-12-24T01:04:10.286Z,9.72
2023-12-24T01:06:36.738Z,9.69
2023-12-24T01:09:03.205Z,9.68
2023-12-24T01:11:30.259Z,9.64
2023-12-24T01:13:57.897Z,9.68
2023-12-24T01:16:24.356Z,9.67
2023-12-24T01:18:52.440Z,9.62
2023-12-24T01:21:19.572Z,9.68
2023-12-24T01:23:46.040Z,9.68
2023-12-24T01:26:12.492Z,9.73
2023-12-24T01:28:38.926Z,9.73
2023-12-24T01:31:05.316Z,9.69
2023-12-24T01:33:31.872Z,9.75
2023-12-24T01:35:58.273Z,9.74
2023-12-24T01:38:24.727Z,9.81
2023-12-24T01:40:51.830Z,9.80
2023-12-24T01:43:18.373Z,9.80
2023-12-24T01:45:44.839Z,9.79
2023-12-24T01:48:15.287Z,9.84
2023-12-24T01:50:43.289Z,9.89
2023-12-24T01:53:09.866Z,9.92
2023-12-24T01:55:36.758Z,9.97
2023-12-24T01:58:04.608Z,9.96
2023-12-24T02:00:32.014Z,9.92
2023-12-24T02:02:59.697Z,9.94
2023-12-24T02:05:27.688Z,10.01
2023-12-24T02:07:56.886Z,9.95
2023-12-24T02:10:24.003Z,9.98
2023-12-24T02:12:51.609Z,10.01
2023-12-24T02:15:18.287Z,10.01
2023-12-24T02:17:44.985Z,10.02
2023-12-24T02:20:11.665Z,9.99
2023-12-24T02:22:38.131Z,9.97
2023-12-24T02:25:06.218Z,10.02
2023-12-24T02:28:06.330Z,10.04
2023-12-24T02:30:42.446Z,9.97
2023-12-24T02:33:11.707Z,9.97
2023-12-24T02:35:39.522Z,9.90
2023-12-24T02:38:06.679Z,9.87
2023-12-24T02:40:33.158Z,9.92
2023-12-24T02:43:00.589Z,9.91
2023-12-24T02:45:27.028Z,9.86
2023-12-24T02:47:53.664Z,9.76
2023-12-24T02:50:20.759Z,9.75
2023-12-24T02:52:47.579Z,9.70
2023-12-24T02:55:13.987Z,9.58
2023-12-24T02:57:40.434Z,9.49
2023-12-24T03:00:09.551Z,9.47
2023-12-24T03:02:36.603Z,9.38
2023-12-24T03:05:03.287Z,9.37
2023-12-24T03:07:29.842Z,9.26
2023-12-24T03:09:56.280Z,9.16
2023-12-24T03:12:22.923Z,9.15
2023-12-24T03:14:49.385Z,9.14
2023-12-24T03:17:15.891Z,9.05
2023-12-24T03:19:42.338Z,9.10
2023-12-24T03:22:09.401Z,9.07
2023-12-24T03:24:35.825Z,9.11
2023-12-24T03:27:02.320Z,9.13
2023-12-24T03:29:29.037Z,9.09
2023-12-24T03:31:55.563Z,9.10
2023-12-24T03:34:22.278Z,9.07
2023-12-24T03:36:48.844Z,9.04
2023-12-24T03:39:15.854Z,9.04
2023-12-24T03:41:43.138Z,9.03
2023-12-24T03:44:09.580Z,9.01
2023-12-24T03:46:36.062Z,9.06
2023-12-24T03:49:02.568Z,9.04
2023-12-24T03:51:29.021Z,8.98
2023-12-24T03:53:55.698Z,9.06
2023-12-24T03:56:22.180Z,9.08
2023-12-24T03:58:48.667Z,9.04
2023-12-24T04:01:15.155Z,9.05
2023-12-24T04:03:42.227Z,9.11
2023-12-24T04:06:17.210Z,9.13
2023-12-24T04:08:44.087Z,9.14
2023-12-24T04:11:15.075Z,9.12
2023-12-24T04:13:41.967Z,9.15
2023-12-24T04:16:08.800Z,9.20
2023-12-24T04:18:35.820Z,9.23
2023-12-24T04:21:03.074Z,9.24
2023-12-24T04:23:29.648Z,9.18
2023-12-24T04:25:56.141Z,9.22
2023-12-24T04:28:24.039Z,9.30
2023-12-24T04:30:50.867Z,9.32
2023-12-24T04:33:17.640Z,9.34
2023-12-24T04:35:46.047Z,9.33
2023-12-24T04:38:12.932Z,9.33
2023-12-24T04:40:39.567Z,9.30
2023-12-24T04:43:05.991Z,9.31
2023-12-24T04:45:32.407Z,9.34
2023-12-24T04:48:00.701Z,9.37
2023-12-24T04:50:27.640Z,9.36
2023-12-24T04:52:54.449Z,9.32
2023-12-24T04:55:21.440Z,9.36
2023-12-24T04:57:48.009Z,9.35
2023-12-24T05:00:14.821Z,9.37
2023-12-24T05:02:41.260Z,9.36
2023-12-24T05:05:07.904Z,9.33
2023-12-24T05:07:34.401Z,9.38
2023-12-24T05:10:02.243Z,9.37
2023-12-24T05:12:29.401Z,9.38
2023-12-24T05:14:56.047Z,9.39
2023-12-24T05:17:22.729Z,9.39
2023-12-24T05:19:49.249Z,9.35
2023-12-24T05:22:15.695Z,9.44
2023-12-24T05:24:42.154Z,9.40
2023-12-24T05:27:08.909Z,9.42
2023-12-24T05:29:35.334Z,9.41
2023-12-24T05:32:02.790Z,9.43
2023-12-24T05:34:29.276Z,9.48
2023-12-24T05:36:55.744Z,9.36
2023-12-24T05:39:22.140Z,9.40
2023-12-24T05:41:48.690Z,9.45
2023-12-24T05:44:15.349Z,9.44
2023-12-24T05:46:41.781Z,9.41
2023-12-24T05:49:08.703Z,9.46
2023-12-24T05:51:35.277Z,9.44
2023-12-24T05:54:01.865Z,9.43
2023-12-24T05:56:28.300Z,9.39
2023-12-24T05:58:54.752Z,9.39
2023-12-24T06:01:21.259Z,9.44
2023-12-24T06:03:47.733Z,9.41
2023-12-24T06:06:14.321Z,9.43
2023-12-24T06:08:40.891Z,9.47
2023-12-24T06:11:07.407Z,9.43
2023-12-24T06:13:33.920Z,9.44
2023-12-24T06:16:00.306Z,9.44
2023-12-24T06:18:26.861Z,9.46
2023-12-24T06:20:53.414Z,9.45
2023-12-24T06:23:19.968Z,9.46
2023-12-24T06:25:46.383Z,9.44
2023-12-24T06:28:12.776Z,9.41
2023-12-24T06:30:39.249Z,9.47
2023-12-24T06:33:05.824Z,9.46
2023-12-24T06:35:32.534Z,9.49
2023-12-24T06:37:58.996Z,9.48
2023-12-24T06:40:25.412Z,9.48
2023-12-24T06:42:52.773Z,9.51
2023-12-24T06:45:19.425Z,9.51
2023-12-24T06:47:45.974Z,9.48
2023-12-24T06:50:12.562Z,9.45
2023-12-24T06:52:39.037Z,9.48
2023-12-24T06:55:05.789Z,9.54
2023-12-24T06:57:32.216Z,9.53
2023-12-24T06:59:58.637Z,9.52
2023-12-24T07:02:25.112Z,9.50
2023-12-24T07:04:51.548Z,9.50
2023-12-24T07:07:17.968Z,9.55
2023-12-24T07:09:44.413Z,9.60
2023-12-24T07:12:10.837Z,9.61
2023-12-24T07:14:37.413Z,9.64
2023-12-24T07:17:04.080Z,9.61
2023-12-24T07:19:30.558Z,9.58
2023-12-24T07:21:57.331Z,9.53
2023-12-24T07:24:23.722Z,9.58
2023-12-24T07:26:50.142Z,9.59
2023-12-24T07:29:16.853Z,9.58
2023-12-24T07:31:43.364Z,9.57
2023-12-24T07:34:09.870Z,9.60
2023-12-24T07:36:36.355Z,9.60
2023-12-24T07:39:04.495Z,9.57
2023-12-24T07:41:32.809Z,9.58
2023-12-24T07:44:04.779Z,9.62
2023-12-24T07:46:31.253Z,9.66
2023-12-24T07:48:58.264Z,9.69
2023-12-24T07:51:25.037Z,9.61
2023-12-24T07:53:51.688Z,9.68
2023-12-24T07:56:18.117Z,9.67
2023-12-24T07:58:44.534Z,9.66
2023-12-24T08:01:11.028Z,9.66
2023-12-24T08:03:37.436Z,9.69
2023-12-24T08:06:04.320Z,9.70
2023-12-24T08:08:30.836Z,9.72
2023-12-24T08:10:59.844Z,9.69
2023-12-24T08:13:30.567Z,9.73
2023-12-24T08:15:56.962Z,9.81
2023-12-24T08:18:23.590Z,9.76
2023-12-24T08:20:50.811Z,9.75
2023-12-24T08:23:17.485Z,9.76
2023-12-24T08:25:44.060Z,9.76
2023-12-24T08:28:10.453Z,9.82
2023-12-24T08:30:36.876Z,9.84
2023-12-24T08:33:04.137Z,9.81
2023-12-24T08:35:30.828Z,9.76
2023-12-24T08:37:57.350Z,9.78
2023-12-24T08:40:24.499Z,9.81
2023-12-24T08:42:51.310Z,9.85
2023-12-24T08:45:18.778Z,9.88
2023-12-24T08:47:45.554Z,9.87
2023-12-24T08:50:12.153Z,9.86
2023-12-24T08:52:38.638Z,9.86
2023-12-24T08:55:07.170Z,9.84
2023-12-24T08:57:33.585Z,9.84
2023-12-24T08:59:59.973Z,9.83
2023-12-24T09:02:26.492Z,9.90
2023-12-24T09:04:52.902Z,9.95
2023-12-24T09:07:20.165Z,9.94
2023-12-24T09:09:46.629Z,9.96
2023-12-24T09:12:13.083Z,9.94
2023-12-24T09:14:39.545Z,9.97
2023-12-24T09:17:06.022Z,9.97
2023-12-24T09:19:32.650Z,9.97
2023-12-24T09:21:59.043Z,9.97
2023-12-24T09:24:25.521Z,9.99
2023-12-24T09:26:51.999Z,10.00
2023-12-24T09:29:22.338Z,10.03
2023-12-24T09:31:49.415Z,9.95
2023-12-24T09:34:15.939Z,10.03
2023-12-24T09:36:42.483Z,9.99
2023-12-24T09:39:08.902Z,10.00
2023-12-24T09:41:35.358Z,10.02
2023-12-24T09:44:02.164Z,10.10
2023-12-24T09:46:28.650Z,10.04
2023-12-24T09:48:55.347Z,10.07
2023-12-24T09:51:23.120Z,10.01
2023-12-24T09:53:50.265Z,10.02
2023-12-24T09:56:16.910Z,10.03
2023-12-24T09:58:44.797Z,10.05
2023-12-24T10:01:11.632Z,10.00
2023-12-24T10:03:38.209Z,10.03
2023-12-24T10:06:09.145Z,10.06
2023-12-24T10:08:36.598Z,10.10
2023-12-24T10:11:18.229Z,10.10
2023-12-24T10:13:45.318Z,10.08
2023-12-24T10:16:15.252Z,10.09
2023-12-24T10:18:50.638Z,10.17
2023-12-24T10:21:18.149Z,10.14
2023-12-24T10:23:44.633Z,10.13
2023-12-24T10:26:12.739Z,10.14
2023-12-24T10:28:58.210Z,10.21
2023-12-24T10:31:28.364Z,10.22
2023-12-24T10:34:00.224Z,10.22
2023-12-24T10:36:26.929Z,10.24
2023-12-24T10:38:53.524Z,10.29
2023-12-24T10:41:19.980Z,10.31
2023-12-24T10:43:46.394Z,10.39
2023-12-24T10:46:12.793Z,10.44
2023-12-24T10:48:39.320Z,10.46
2023-12-24T10:51:05.875Z,10.45
2023-12-24T10:53:32.766Z,10.51
2023-12-24T10:56:09.652Z,10.59
2023-12-24T10:58:51.802Z,10.59
2023-12-24T11:01:18.255Z,10.60
2023-12-24T11:03:49.182Z,10.64
2023-12-24T11:06:37.300Z,10.61
2023-12-24T11:09:15.942Z,10.59
2023-12-24T11:11:52.836Z,10.59
2023-12-24T11:14:37.846Z,10.57
2023-12-24T11:17:06.767Z,10.59
2023-12-24T11:19:36.546Z,10.60
2023-12-24T11:22:11.300Z,10.60
2023-12-24T11:27:13.571Z,10.56
2023-12-24T11:29:47.341Z,10.63
2023-12-24T11:32:37.674Z,10.63
2023-12-24T11:35:04.922Z,10.56
2023-12-24T11:37:37.261Z,10.66
2023-12-24T11:40:08.622Z,10.66
2023-12-24T11:42:52.139Z,10.66
2023-12-24T11:45:26.570Z,10.64
2023-12-24T11:47:54.644Z,10.66
2023-12-24T11:50:21.829Z,10.69
2023-12-24T11:52:50.061Z,10.68
2023-12-24T11:55:17.575Z,10.71
2023-12-24T11:57:44.998Z,10.74
2023-12-24T12:00:24.752Z,10.70
2023-12-24T12:03:00.497Z,10.70
2023-12-24T12:05:31.358Z,10.73
2023-12-24T12:07:58.315Z,10.72
2023-12-24T12:10:24.831Z,10.70
2023-12-24T12:12:51.934Z,10.71
2023-12-24T12:15:21.006Z,10.69
2023-12-24T12:17:49.815Z,10.69
2023-12-24T12:20:17.384Z,10.75
2023-12-24T12:22:43.860Z,10.75
2023-12-24T12:25:10.284Z,10.71
2023-12-24T12:27:37.015Z,10.71
2023-12-24T12:30:04.321Z,10.73
2023-12-24T12:32:30.838Z,10.73
2023-12-24T12:34:57.356Z,10.85
2023-12-24T12:37:23.850Z,10.93
2023-12-24T12:39:52.793Z,10.95
2023-12-24T12:42:19.422Z,10.96
2023-12-24T12:44:46.387Z,10.95
2023-12-24T12:47:13.668Z,10.98
2023-12-24T12:49:42.630Z,11.00
2023-12-24T12:52:12.192Z,11.03
2023-12-24T12:54:38.664Z,11.05
2023-12-24T12:57:05.108Z,11.05
2023-12-24T12:59:32.493Z,11.06
2023-12-24T13:02:00.437Z,11.08
2023-12-24T13:04:33.234Z,11.12
2023-12-24T13:07:02.952Z,11.04
2023-12-24T13:09:33.925Z,11.06
2023-12-24T13:12:07.320Z,11.06
2023-12-24T13:14:34.565Z,10.96
2023-12-24T13:17:11.336Z,10.99
2023-12-24T13:19:41.870Z,10.96
2023-12-24T13:22:08.453Z,11.04
2023-12-24T13:24:34.944Z,11.02
2023-12-24T13:27:02.017Z,11.04
2023-12-24T13:29:30.550Z,11.05
2023-12-24T13:31:57.135Z,11.07
2023-12-24T13:34:23.554Z,11.12
2023-12-24T13:36:50.011Z,11.14
2023-12-24T13:39:20.069Z,11.08
2023-12-24T13:41:46.624Z,11.05
2023-12-24T13:44:13.345Z,11.05
2023-12-24T13:46:41.383Z,11.16
2023-12-24T13:49:10.687Z,11.14
2023-12-24T13:51:39.943Z,11.15
2023-12-24T13:54:06.399Z,11.20
2023-12-24T13:56:34.174Z,11.17
2023-12-24T13:59:00.939Z,11.18
2023-12-24T14:01:28.570Z,11.26
2023-12-24T14:03:55.118Z,11.30
2023-12-24T14:06:21.723Z,11.27
2023-12-24T14:08:48.196Z,11.26
2023-12-24T14:11:14.705Z,11.27
2023-12-24T14:13:42.110Z,11.33
2023-12-24T14:16:09.928Z,11.31
2023-12-24T14:18:36.487Z,11.35
2023-12-24T14:21:03.085Z,11.35
2023-12-24T14:23:29.506Z,11.32
2023-12-24T14:25:56.018Z,11.33
2023-12-24T14:28:22.491Z,11.34
2023-12-24T14:30:51.299Z,11.42
2023-12-24T14:33:18.147Z,11.44
2023-12-24T14:35:44.713Z,11.45
2023-12-24T14:38:11.166Z,11.44
2023-12-24T14:40:37.642Z,11.42
2023-12-24T14:43:04.278Z,11.40
2023-12-24T14:45:30.761Z,11.36
2023-12-24T14:47:57.513Z,11.40
2023-12-24T14:50:24.257Z,11.42
2023-12-24T14:52:50.864Z,11.40
2023-12-24T14:55:17.313Z,11.41
2023-12-24T14:57:43.699Z,11.43
2023-12-24T15:00:10.561Z,11.42
2023-12-24T15:02:37.006Z,11.40
2023-12-24T15:05:04.196Z,11.44
2023-12-24T15:07:31.030Z,11.49
2023-12-24T15:09:57.501Z,11.46
2023-12-24T15:12:24.416Z,11.47
2023-12-24T15:14:52.240Z,11.52
2023-12-24T15:17:18.847Z,11.55
2023-12-24T15:19:45.855Z,11.62
2023-12-24T15:22:12.627Z,11.65
2023-12-24T15:24:39.255Z,11.64
2023-12-24T15:27:05.788Z,11.62
2023-12-24T15:29:32.379Z,11.68
2023-12-24T15:31:58.986Z,11.71
2023-12-24T15:34:25.523Z,11.75
2023-12-24T15:36:51.974Z,11.76
2023-12-24T15:39:18.365Z,11.80
2023-12-24T15:41:44.814Z,11.80
2023-12-24T15:44:11.287Z,11.88
2023-12-24T15:46:37.725Z,11.91
2023-12-24T15:49:05.202Z,11.95
2023-12-24T15:51:33.598Z,11.95
2023-12-24T15:54:02.212Z,11.90
2023-12-24T15:56:28.659Z,11.85
2023-12-24T15:58:55.065Z,11.89
2023-12-24T16:01:22.048Z,11.85
2023-12-24T16:03:48.486Z,11.86
2023-12-24T16:06:14.973Z,11.83
2023-12-24T16:08:41.471Z,11.79
2023-12-24T16:11:08.056Z,11.73
2023-12-24T16:13:34.523Z,11.69
2023-12-24T16:16:00.924Z,11.70
2023-12-24T16:18:27.535Z,11.67
2023-12-24T16:20:54.147Z,11.64
2023-12-24T16:23:20.684Z,11.68
2023-12-24T16:25:47.146Z,11.65
2023-12-24T16:28:13.790Z,11.67
2023-12-24T16:30:40.355Z,11.65
2023-12-24T16:33:08.021Z,11.59
2023-12-24T16:35:34.708Z,11.57
2023-12-24T16:38:01.218Z,11.59
2023-12-24T16:40:29.496Z,11.63
2023-12-24T16:42:56.094Z,11.62
2023-12-24T16:45:23.905Z,11.61
2023-12-24T16:47:51.165Z,11.62
2023-12-24T16:50:18.779Z,11.61
2023-12-24T16:52:45.279Z,11.59
2023-12-24T16:55:11.958Z,11.63
2023-12-24T16:57:38.431Z,11.67
2023-12-24T17:00:05.507Z,11.59
2023-12-24T17:02:31.933Z,11.59
2023-12-24T17:04:58.426Z,11.58
2023-12-24T17:07:24.907Z,11.58
2023-12-24T17:09:52.299Z,11.60
2023-12-24T17:12:19.687Z,11.63
2023-12-24T17:14:47.199Z,11.55
2023-12-24T17:17:14.035Z,11.56
2023-12-24T17:19:40.688Z,11.60
2023-12-24T17:22:07.275Z,11.56
2023-12-24T17:24:33.670Z,11.56
2023-12-24T17:27:00.192Z,11.58
2023-12-24T17:29:26.683Z,11.61
2023-12-24T17:31:53.160Z,11.58
2023-12-24T17:34:19.666Z,11.55
2023-12-24T17:36:46.119Z,11.60
2023-12-24T17:39:12.543Z,11.56
2023-12-24T17:41:38.978Z,11.59
2023-12-24T17:44:05.629Z,11.55
2023-12-24T17:46:32.154Z,11.58
2023-12-24T17:48:59.591Z,11.62
2023-12-24T17:51:26.159Z,11.61
2023-12-24T17:53:53.773Z,11.61
2023-12-24T17:56:20.288Z,11.61
2023-12-24T17:58:46.787Z,11.62
2023-12-24T18:01:13.757Z,11.60
2023-12-24T18:03:40.223Z,11.62
2023-12-24T18:06:06.885Z,11.64
2023-12-24T18:08:33.627Z,11.62
2023-12-24T18:11:00.232Z,11.64
2023-12-24T18:13:26.887Z,11.67
2023-12-24T18:15:53.281Z,11.74
2023-12-24T18:18:19.939Z,11.70
2023-12-24T18:20:46.466Z,11.68
2023-12-24T18:23:13.055Z,11.66
2023-12-24T18:25:39.545Z,11.66
2023-12-24T18:28:05.983Z,11.66
2023-12-24T18:30:32.772Z,11.69
2023-12-24T18:32:59.790Z,11.70
2023-12-24T18:35:26.683Z,11.70
2023-12-24T18:37:53.168Z,11.69
2023-12-24T18:40:19.561Z,11.65
2023-12-24T18:42:45.999Z,11.67
2023-12-24T18:45:12.454Z,11.70
2023-12-24T18:47:38.953Z,11.71
2023-12-24T18:50:06.558Z,11.74
2023-12-24T18:52:32.999Z,11.73
2023-12-24T18:54:59.470Z,11.77
2023-12-24T18:57:25.977Z,11.77
2023-12-24T18:59:52.387Z,11.76
2023-12-24T19:02:21.385Z,11.76
2023-12-24T19:04:49.410Z,11.70
2023-12-24T19:07:17.181Z,11.65
2023-12-24T19:09:43.864Z,11.65
2023-12-24T19:12:13.013Z,11.61
2023-12-24T19:14:40.928Z,11.57
2023-12-24T19:17:07.333Z,11.48
2023-12-24T19:19:33.987Z,11.47
2023-12-24T19:22:00.554Z,11.41
2023-12-24T19:24:27.272Z,11.45
2023-12-24T19:26:54.180Z,11.42
2023-12-24T19:29:20.733Z,11.40
2023-12-24T19:31:49.043Z,11.39
2023-12-24T19:34:15.481Z,11.34
2023-12-24T19:36:41.867Z,11.28
2023-12-24T19:39:08.337Z,11.29
2023-12-24T19:41:34.776Z,11.30
2023-12-24T19:44:01.211Z,11.26
2023-12-24T19:46:27.650Z,11.28
2023-12-24T19:48:54.900Z,11.27
2023-12-24T19:51:23.001Z,11.32
2023-12-24T19:53:52.997Z,11.33
2023-12-24T19:56:19.635Z,11.38
2023-12-24T19:58:46.373Z,11.36
2023-12-24T20:01:13.440Z,11.33
2023-12-24T20:03:40.477Z,11.32
2023-12-24T20:06:07.208Z,11.30
2023-12-24T20:08:33.794Z,11.31
2023-12-24T20:11:00.211Z,11.29
2023-12-24T20:13:26.652Z,11.28
2023-12-24T20:15:53.039Z,11.26
2023-12-24T20:18:19.731Z,11.24
2023-12-24T20:20:46.312Z,11.20
2023-12-24T20:23:13.005Z,11.22
2023-12-24T20:25:39.464Z,11.18
2023-12-24T20:28:07.312Z,11.22
2023-12-24T20:30:34.187Z,11.24
2023-12-24T20:33:00.999Z,11.23
2023-12-24T20:35:27.831Z,11.26
2023-12-24T20:37:54.304Z,11.27
2023-12-24T20:40:20.683Z,11.21
2023-12-24T20:42:47.061Z,11.24
2023-12-24T20:45:13.487Z,11.32
2023-12-24T20:47:40.332Z,11.26
2023-12-24T20:50:08.108Z,11.32
2023-12-24T20:52:34.493Z,11.31
2023-12-24T20:55:00.861Z,11.34
2023-12-24T20:57:27.442Z,11.31
2023-12-24T20:59:54.167Z,11.33
2023-12-24T21:02:21.194Z,11.32
2023-12-24T21:04:47.735Z,11.37
2023-12-24T21:07:14.218Z,11.36
2023-12-24T21:09:44.448Z,11.31
2023-12-24T21:12:10.906Z,11.30
2023-12-24T21:14:37.312Z,11.31
2023-12-24T21:17:04.031Z,11.31
2023-12-24T21:19:30.473Z,11.26
2023-12-24T21:21:56.866Z,11.22
2023-12-24T21:24:23.269Z,11.19
2023-12-24T21:26:49.745Z,11.19
2023-12-24T21:29:16.178Z,11.17
2023-12-24T21:31:42.625Z,11.16
2023-12-24T21:34:09.182Z,11.18
2023-12-24T21:36:36.120Z,11.15
2023-12-24T21:39:03.306Z,11.15
2023-12-24T21:41:29.760Z,11.16
2023-12-24T21:44:00.468Z,11.18
2023-12-24T21:46:26.895Z,11.15
2023-12-24T21:48:53.400Z,11.18
2023-12-24T21:51:19.820Z,11.20
2023-12-24T21:53:46.305Z,11.17
2023-12-24T21:56:12.726Z,11.22
2023-12-24T21:58:39.170Z,11.19
2023-12-24T22:01:06.485Z,11.23
2023-12-24T22:03:35.067Z,11.20
2023-12-24T22:06:05.174Z,11.18
2023-12-24T22:08:31.806Z,11.16
2023-12-24T22:10:58.269Z,11.14
2023-12-24T22:13:25.327Z,11.13
2023-12-24T22:15:51.873Z,11.11
2023-12-24T22:18:19.028Z,11.08
2023-12-24T22:20:45.941Z,11.08
2023-12-24T22:23:12.370Z,11.08
2023-12-24T22:25:38.788Z,11.08
2023-12-24T22:28:05.187Z,11.03
2023-12-24T22:30:31.636Z,10.99
2023-12-24T22:32:58.234Z,10.97
2023-12-24T22:35:25.352Z,10.99
2023-12-24T22:37:52.320Z,10.94
2023-12-24T22:40:18.982Z,10.98
2023-12-24T22:42:45.361Z,11.01
2023-12-24T22:45:11.748Z,10.98
2023-12-24T22:47:38.289Z,11.06
2023-12-24T22:50:05.158Z,11.07
2023-12-24T22:52:31.513Z,11.12
2023-12-24T22:54:58.072Z,11.04
2023-12-24T22:57:24.517Z,11.04
2023-12-24T22:59:51.282Z,11.10
2023-12-24T23:02:17.786Z,11.08
2023-12-24T23:04:45.213Z,11.14
2023-12-24T23:07:13.336Z,11.16
2023-12-24T23:09:41.083Z,11.21
2023-12-24T23:12:07.857Z,11.13
2023-12-24T23:14:34.350Z,11.15
2023-12-24T23:17:00.787Z,11.20
2023-12-24T23:19:27.962Z,11.21
2023-12-24T23:21:55.171Z,11.27
2023-12-24T23:24:21.527Z,11.24
2023-12-24T23:26:47.966Z,11.21
2023-12-24T23:29:14.408Z,11.17
2023-12-24T23:31:40.811Z,11.25
2023-12-24T23:34:07.454Z,11.25
2023-12-24T23:36:34.112Z,11.26
2023-12-24T23:39:00.549Z,11.23
2023-12-24T23:41:26.968Z,11.20
2023-12-24T23:43:53.342Z,11.20
2023-12-24T23:46:20.185Z,11.21
2023-12-24T23:48:46.718Z,11.25
2023-12-24T23:51:14.401Z,11.26
2023-12-24T23:53:40.873Z,11.22
2023-12-24T23:56:14.033Z,11.15
2023-12-24T23:58:40.709Z,11.15
